sensor_id;sensor_type;location;lat;lon;timestamp;temperature;humidity
32293;DHT22;43233;48.608;8.838;2023-04-15T00:00:48;4.60;61.60
32293;DHT22;43233;48.608;8.838;2023-04-15T00:03:15;4.40;62.70
32293;DHT22;43233;48.608;8.838;2023-04-15T00:05:41;4.20;63.40
32293;DHT22;43233;48.608;8.838;2023-04-15T00:08:07;4.20;64.70
32293;DHT22;43233;48.608;8.838;2023-04-15T00:10:33;4.20;64.00
32293;DHT22;43233;48.608;8.838;2023-04-15T00:12:59;4.10;64.20
32293;DHT22;43233;48.608;8.838;2023-04-15T00:15:25;3.90;64.60
32293;DHT22;43233;48.608;8.838;2023-04-15T00:17:51;4.00;64.10
32293;DHT22;43233;48.608;8.838;2023-04-15T00:20:17;4.00;63.50
32293;DHT22;43233;48.608;8.838;2023-04-15T00:22:42;4.10;62.70
32293;DHT22;43233;48.608;8.838;2023-04-15T00:25:08;4.20;62.50
32293;DHT22;43233;48.608;8.838;2023-04-15T00:27:34;4.20;62.30
32293;DHT22;43233;48.608;8.838;2023-04-15T00:29:59;4.00;64.20
32293;DHT22;43233;48.608;8.838;2023-04-15T00:32:25;3.80;65.10
32293;DHT22;43233;48.608;8.838;2023-04-15T00:34:50;3.40;66.70
32293;DHT22;43233;48.608;8.838;2023-04-15T00:37:16;3.20;67.80
32293;DHT22;43233;48.608;8.838;2023-04-15T00:39:42;3.10;68.40
32293;DHT22;43233;48.608;8.838;2023-04-15T00:42:09;3.10;68.60
32293;DHT22;43233;48.608;8.838;2023-04-15T00:44:35;3.10;68.40
32293;DHT22;43233;48.608;8.838;2023-04-15T00:47:00;3.10;68.00
32293;DHT22;43233;48.608;8.838;2023-04-15T00:49:28;3.20;67.20
32293;DHT22;43233;48.608;8.838;2023-04-15T00:51:54;3.30;66.50
32293;DHT22;43233;48.608;8.838;2023-04-15T00:54:20;3.40;65.90
32293;DHT22;43233;48.608;8.838;2023-04-15T00:56:46;3.40;65.60
32293;DHT22;43233;48.608;8.838;2023-04-15T00:59:13;3.40;65.70
32293;DHT22;43233;48.608;8.838;2023-04-15T01:01:39;3.40;65.60
32293;DHT22;43233;48.608;8.838;2023-04-15T01:04:05;3.50;65.00
32293;DHT22;43233;48.608;8.838;2023-04-15T01:06:31;3.50;64.50
32293;DHT22;43233;48.608;8.838;2023-04-15T01:08:58;3.40;64.70
32293;DHT22;43233;48.608;8.838;2023-04-15T01:11:24;3.30;66.10
32293;DHT22;43233;48.608;8.838;2023-04-15T01:13:50;3.20;66.70
32293;DHT22;43233;48.608;8.838;2023-04-15T01:16:17;3.00;67.60
32293;DHT22;43233;48.608;8.838;2023-04-15T01:18:43;2.90;68.30
32293;DHT22;43233;48.608;8.838;2023-04-15T01:21:09;2.80;69.10
32293;DHT22;43233;48.608;8.838;2023-04-15T01:23:36;2.60;70.00
32293;DHT22;43233;48.608;8.838;2023-04-15T01:26:03;2.60;70.40
32293;DHT22;43233;48.608;8.838;2023-04-15T01:28:30;2.60;70.40
32293;DHT22;43233;48.608;8.838;2023-04-15T01:31:12;2.60;69.90
32293;DHT22;43233;48.608;8.838;2023-04-15T01:33:40;2.70;69.40
32293;DHT22;43233;48.608;8.838;2023-04-15T01:36:07;2.70;68.80
32293;DHT22;43233;48.608;8.838;2023-04-15T01:38:34;2.90;68.30
32293;DHT22;43233;48.608;8.838;2023-04-15T01:41:00;2.90;67.70
32293;DHT22;43233;48.608;8.838;2023-04-15T01:43:26;3.00;67.00
32293;DHT22;43233;48.608;8.838;2023-04-15T01:45:52;3.10;66.70
32293;DHT22;43233;48.608;8.838;2023-04-15T01:48:18;3.10;66.70
32293;DHT22;43233;48.608;8.838;2023-04-15T01:50:44;3.00;67.00
32293;DHT22;43233;48.608;8.838;2023-04-15T01:53:10;3.00;67.50
32293;DHT22;43233;48.608;8.838;2023-04-15T01:55:36;2.90;67.90
32293;DHT22;43233;48.608;8.838;2023-04-15T01:58:02;2.80;68.10
32293;DHT22;43233;48.608;8.838;2023-04-15T02:00:28;2.80;68.20
32293;DHT22;43233;48.608;8.838;2023-04-15T02:02:54;2.80;67.90
32293;DHT22;43233;48.608;8.838;2023-04-15T02:05:20;2.80;68.10
32293;DHT22;43233;48.608;8.838;2023-04-15T02:07:45;2.80;68.30
32293;DHT22;43233;48.608;8.838;2023-04-15T02:10:11;2.80;69.00
32293;DHT22;43233;48.608;8.838;2023-04-15T02:12:38;2.70;69.10
32293;DHT22;43233;48.608;8.838;2023-04-15T02:15:04;2.80;68.70
32293;DHT22;43233;48.608;8.838;2023-04-15T02:17:33;2.80;68.20
32293;DHT22;43233;48.608;8.838;2023-04-15T02:19:59;2.90;67.80
32293;DHT22;43233;48.608;8.838;2023-04-15T02:22:25;2.90;67.50
32293;DHT22;43233;48.608;8.838;2023-04-15T02:24:50;2.80;68.00
32293;DHT22;43233;48.608;8.838;2023-04-15T02:27:17;2.70;68.90
32293;DHT22;43233;48.608;8.838;2023-04-15T02:29:46;2.50;70.30
32293;DHT22;43233;48.608;8.838;2023-04-15T02:32:12;2.50;71.00
32293;DHT22;43233;48.608;8.838;2023-04-15T02:34:39;2.40;71.50
32293;DHT22;43233;48.608;8.838;2023-04-15T02:37:07;2.40;71.60
32293;DHT22;43233;48.608;8.838;2023-04-15T02:39:33;2.40;71.10
32293;DHT22;43233;48.608;8.838;2023-04-15T02:41:58;2.40;70.50
32293;DHT22;43233;48.608;8.838;2023-04-15T02:44:25;2.30;70.80
32293;DHT22;43233;48.608;8.838;2023-04-15T02:46:53;2.30;71.10
32293;DHT22;43233;48.608;8.838;2023-04-15T02:49:23;2.30;71.50
32293;DHT22;43233;48.608;8.838;2023-04-15T02:51:48;2.20;71.80
32293;DHT22;43233;48.608;8.838;2023-04-15T02:54:19;2.20;72.70
32293;DHT22;43233;48.608;8.838;2023-04-15T02:56:45;2.20;72.50
32293;DHT22;43233;48.608;8.838;2023-04-15T02:59:14;2.30;72.00
32293;DHT22;43233;48.608;8.838;2023-04-15T03:01:39;2.40;71.10
32293;DHT22;43233;48.608;8.838;2023-04-15T03:04:05;2.50;70.90
32293;DHT22;43233;48.608;8.838;2023-04-15T03:06:33;2.60;71.20
32293;DHT22;43233;48.608;8.838;2023-04-15T03:08:59;2.60;71.60
32293;DHT22;43233;48.608;8.838;2023-04-15T03:11:25;2.50;72.30
32293;DHT22;43233;48.608;8.838;2023-04-15T03:13:54;2.30;72.70
32293;DHT22;43233;48.608;8.838;2023-04-15T03:16:19;2.30;73.20
32293;DHT22;43233;48.608;8.838;2023-04-15T03:18:45;2.30;73.40
32293;DHT22;43233;48.608;8.838;2023-04-15T03:21:11;2.20;73.90
32293;DHT22;43233;48.608;8.838;2023-04-15T03:23:36;2.10;74.00
32293;DHT22;43233;48.608;8.838;2023-04-15T03:26:03;2.10;73.80
32293;DHT22;43233;48.608;8.838;2023-04-15T03:28:29;2.20;73.60
32293;DHT22;43233;48.608;8.838;2023-04-15T03:30:55;2.20;73.10
32293;DHT22;43233;48.608;8.838;2023-04-15T03:33:20;2.30;72.70
32293;DHT22;43233;48.608;8.838;2023-04-15T03:35:46;2.30;72.20
32293;DHT22;43233;48.608;8.838;2023-04-15T03:38:12;2.20;72.50
32293;DHT22;43233;48.608;8.838;2023-04-15T03:40:41;2.20;72.80
32293;DHT22;43233;48.608;8.838;2023-04-15T03:43:06;2.10;72.90
32293;DHT22;43233;48.608;8.838;2023-04-15T03:45:32;2.20;72.40
32293;DHT22;43233;48.608;8.838;2023-04-15T03:47:58;2.20;72.00
32293;DHT22;43233;48.608;8.838;2023-04-15T03:50:23;2.10;72.10
32293;DHT22;43233;48.608;8.838;2023-04-15T03:52:49;2.10;72.00
32293;DHT22;43233;48.608;8.838;2023-04-15T03:55:15;2.20;71.80
32293;DHT22;43233;48.608;8.838;2023-04-15T03:57:40;2.10;72.60
32293;DHT22;43233;48.608;8.838;2023-04-15T04:00:07;2.00;72.90
32293;DHT22;43233;48.608;8.838;2023-04-15T04:02:35;1.80;73.80
32293;DHT22;43233;48.608;8.838;2023-04-15T04:05:00;1.70;75.20
32293;DHT22;43233;48.608;8.838;2023-04-15T04:07:26;1.60;75.80
32293;DHT22;43233;48.608;8.838;2023-04-15T04:09:52;1.60;76.00
32293;DHT22;43233;48.608;8.838;2023-04-15T04:12:17;1.70;75.50
32293;DHT22;43233;48.608;8.838;2023-04-15T04:14:43;1.80;74.80
32293;DHT22;43233;48.608;8.838;2023-04-15T04:17:09;1.90;73.90
32293;DHT22;43233;48.608;8.838;2023-04-15T04:19:34;1.90;73.10
32293;DHT22;43233;48.608;8.838;2023-04-15T04:22:00;2.00;72.40
32293;DHT22;43233;48.608;8.838;2023-04-15T04:24:26;2.10;72.10
32293;DHT22;43233;48.608;8.838;2023-04-15T04:26:51;2.10;71.50
32293;DHT22;43233;48.608;8.838;2023-04-15T04:29:17;2.10;72.50
32293;DHT22;43233;48.608;8.838;2023-04-15T04:31:42;1.90;73.30
32293;DHT22;43233;48.608;8.838;2023-04-15T04:34:08;1.80;74.10
32293;DHT22;43233;48.608;8.838;2023-04-15T04:36:34;1.60;75.20
32293;DHT22;43233;48.608;8.838;2023-04-15T04:38:59;1.50;76.50
32293;DHT22;43233;48.608;8.838;2023-04-15T04:41:26;1.40;76.90
32293;DHT22;43233;48.608;8.838;2023-04-15T04:43:51;1.50;77.50
32293;DHT22;43233;48.608;8.838;2023-04-15T04:46:17;1.50;78.10
32293;DHT22;43233;48.608;8.838;2023-04-15T04:48:42;1.50;77.90
32293;DHT22;43233;48.608;8.838;2023-04-15T04:51:09;1.40;77.90
32293;DHT22;43233;48.608;8.838;2023-04-15T04:53:35;1.40;78.50
32293;DHT22;43233;48.608;8.838;2023-04-15T04:56:02;1.40;78.70
32293;DHT22;43233;48.608;8.838;2023-04-15T04:58:27;1.40;78.80
32293;DHT22;43233;48.608;8.838;2023-04-15T05:00:53;1.50;79.20
32293;DHT22;43233;48.608;8.838;2023-04-15T05:03:19;1.50;78.40
32293;DHT22;43233;48.608;8.838;2023-04-15T05:05:46;1.60;77.80
32293;DHT22;43233;48.608;8.838;2023-04-15T05:08:14;1.60;78.20
32293;DHT22;43233;48.608;8.838;2023-04-15T05:10:39;1.50;78.20
32293;DHT22;43233;48.608;8.838;2023-04-15T05:13:05;1.60;77.80
32293;DHT22;43233;48.608;8.838;2023-04-15T05:15:31;1.70;78.70
32293;DHT22;43233;48.608;8.838;2023-04-15T05:17:57;1.70;77.00
32293;DHT22;43233;48.608;8.838;2023-04-15T05:20:23;1.80;76.70
32293;DHT22;43233;48.608;8.838;2023-04-15T05:22:48;1.90;76.50
32293;DHT22;43233;48.608;8.838;2023-04-15T05:25:14;2.00;76.00
32293;DHT22;43233;48.608;8.838;2023-04-15T05:27:40;2.00;75.30
32293;DHT22;43233;48.608;8.838;2023-04-15T05:30:07;2.20;75.10
32293;DHT22;43233;48.608;8.838;2023-04-15T05:32:33;2.20;75.10
32293;DHT22;43233;48.608;8.838;2023-04-15T05:34:59;2.30;75.40
32293;DHT22;43233;48.608;8.838;2023-04-15T05:37:25;2.40;75.10
32293;DHT22;43233;48.608;8.838;2023-04-15T05:39:51;2.40;74.80
32293;DHT22;43233;48.608;8.838;2023-04-15T05:42:17;2.50;74.90
32293;DHT22;43233;48.608;8.838;2023-04-15T05:44:42;2.50;74.50
32293;DHT22;43233;48.608;8.838;2023-04-15T05:47:08;2.70;74.40
32293;DHT22;43233;48.608;8.838;2023-04-15T05:49:35;2.80;74.40
32293;DHT22;43233;48.608;8.838;2023-04-15T05:52:01;2.90;75.00
32293;DHT22;43233;48.608;8.838;2023-04-15T05:54:26;3.00;74.60
32293;DHT22;43233;48.608;8.838;2023-04-15T05:56:52;3.00;74.80
32293;DHT22;43233;48.608;8.838;2023-04-15T05:59:18;3.10;74.60
32293;DHT22;43233;48.608;8.838;2023-04-15T06:01:44;3.20;73.80
32293;DHT22;43233;48.608;8.838;2023-04-15T06:04:10;3.20;72.80
32293;DHT22;43233;48.608;8.838;2023-04-15T06:06:36;3.20;73.20
32293;DHT22;43233;48.608;8.838;2023-04-15T06:09:03;3.20;72.30
32293;DHT22;43233;48.608;8.838;2023-04-15T06:11:28;3.20;72.30
32293;DHT22;43233;48.608;8.838;2023-04-15T06:13:54;3.20;72.40
32293;DHT22;43233;48.608;8.838;2023-04-15T06:16:19;3.20;72.30
32293;DHT22;43233;48.608;8.838;2023-04-15T06:18:45;3.30;72.50
32293;DHT22;43233;48.608;8.838;2023-04-15T06:21:11;3.30;72.70
32293;DHT22;43233;48.608;8.838;2023-04-15T06:23:37;3.40;72.30
32293;DHT22;43233;48.608;8.838;2023-04-15T06:26:02;3.40;72.10
32293;DHT22;43233;48.608;8.838;2023-04-15T06:28:28;3.30;72.20
32293;DHT22;43233;48.608;8.838;2023-04-15T06:30:54;3.30;72.50
32293;DHT22;43233;48.608;8.838;2023-04-15T06:33:20;3.30;72.70
32293;DHT22;43233;48.608;8.838;2023-04-15T06:35:46;3.30;72.90
32293;DHT22;43233;48.608;8.838;2023-04-15T06:38:12;3.40;73.70
32293;DHT22;43233;48.608;8.838;2023-04-15T06:40:38;3.40;73.10
32293;DHT22;43233;48.608;8.838;2023-04-15T06:43:04;3.40;72.00
32293;DHT22;43233;48.608;8.838;2023-04-15T06:45:30;3.50;72.30
32293;DHT22;43233;48.608;8.838;2023-04-15T06:47:56;3.50;72.50
32293;DHT22;43233;48.608;8.838;2023-04-15T06:50:22;3.40;72.30
32293;DHT22;43233;48.608;8.838;2023-04-15T06:52:47;3.40;71.90
32293;DHT22;43233;48.608;8.838;2023-04-15T06:55:13;3.50;72.30
32293;DHT22;43233;48.608;8.838;2023-04-15T06:57:39;3.50;73.00
32293;DHT22;43233;48.608;8.838;2023-04-15T07:00:05;3.60;71.90
32293;DHT22;43233;48.608;8.838;2023-04-15T07:02:32;3.60;71.80
32293;DHT22;43233;48.608;8.838;2023-04-15T07:04:57;3.70;71.80
32293;DHT22;43233;48.608;8.838;2023-04-15T07:07:23;3.70;70.20
32293;DHT22;43233;48.608;8.838;2023-04-15T07:09:50;3.70;69.80
32293;DHT22;43233;48.608;8.838;2023-04-15T07:12:16;3.80;70.10
32293;DHT22;43233;48.608;8.838;2023-04-15T07:14:41;3.80;70.40
32293;DHT22;43233;48.608;8.838;2023-04-15T07:17:08;4.00;70.40
32293;DHT22;43233;48.608;8.838;2023-04-15T07:19:33;4.10;70.20
32293;DHT22;43233;48.608;8.838;2023-04-15T07:22:00;4.20;70.10
32293;DHT22;43233;48.608;8.838;2023-04-15T07:24:26;4.40;69.90
32293;DHT22;43233;48.608;8.838;2023-04-15T07:26:54;4.40;70.60
32293;DHT22;43233;48.608;8.838;2023-04-15T07:29:23;4.50;70.30
32293;DHT22;43233;48.608;8.838;2023-04-15T07:31:49;4.70;70.30
32293;DHT22;43233;48.608;8.838;2023-04-15T07:34:15;4.80;70.20
32293;DHT22;43233;48.608;8.838;2023-04-15T07:36:41;4.90;70.10
32293;DHT22;43233;48.608;8.838;2023-04-15T07:39:06;5.00;70.20
32293;DHT22;43233;48.608;8.838;2023-04-15T07:41:32;5.20;70.30
32293;DHT22;43233;48.608;8.838;2023-04-15T07:43:58;5.30;70.60
32293;DHT22;43233;48.608;8.838;2023-04-15T07:46:24;5.50;69.10
32293;DHT22;43233;48.608;8.838;2023-04-15T07:48:52;5.60;67.90
32293;DHT22;43233;48.608;8.838;2023-04-15T07:51:18;5.60;68.00
32293;DHT22;43233;48.608;8.838;2023-04-15T07:53:46;5.70;68.10
32293;DHT22;43233;48.608;8.838;2023-04-15T07:56:11;5.70;68.80
32293;DHT22;43233;48.608;8.838;2023-04-15T07:58:37;5.90;69.40
32293;DHT22;43233;48.608;8.838;2023-04-15T08:01:03;6.00;69.40
32293;DHT22;43233;48.608;8.838;2023-04-15T08:03:29;6.10;68.90
32293;DHT22;43233;48.608;8.838;2023-04-15T08:05:55;6.20;68.00
32293;DHT22;43233;48.608;8.838;2023-04-15T08:08:20;6.20;67.70
32293;DHT22;43233;48.608;8.838;2023-04-15T08:10:46;6.30;67.20
32293;DHT22;43233;48.608;8.838;2023-04-15T08:13:12;6.40;67.00
32293;DHT22;43233;48.608;8.838;2023-04-15T08:15:38;6.50;67.60
32293;DHT22;43233;48.608;8.838;2023-04-15T08:18:04;6.60;68.00
32293;DHT22;43233;48.608;8.838;2023-04-15T08:20:29;6.80;67.80
32293;DHT22;43233;48.608;8.838;2023-04-15T08:22:55;6.90;67.40
32293;DHT22;43233;48.608;8.838;2023-04-15T08:25:21;7.00;66.90
32293;DHT22;43233;48.608;8.838;2023-04-15T08:27:47;7.20;66.40
32293;DHT22;43233;48.608;8.838;2023-04-15T08:30:13;7.30;66.00
32293;DHT22;43233;48.608;8.838;2023-04-15T08:32:40;7.40;65.70
32293;DHT22;43233;48.608;8.838;2023-04-15T08:35:07;7.50;64.90
32293;DHT22;43233;48.608;8.838;2023-04-15T08:37:32;7.60;65.60
32293;DHT22;43233;48.608;8.838;2023-04-15T08:39:58;7.70;65.10
32293;DHT22;43233;48.608;8.838;2023-04-15T08:42:29;7.80;63.80
32293;DHT22;43233;48.608;8.838;2023-04-15T08:44:58;7.90;63.40
32293;DHT22;43233;48.608;8.838;2023-04-15T08:47:29;8.10;62.80
32293;DHT22;43233;48.608;8.838;2023-04-15T08:49:57;8.10;62.70
32293;DHT22;43233;48.608;8.838;2023-04-15T08:52:29;8.20;62.90
32293;DHT22;43233;48.608;8.838;2023-04-15T08:54:56;8.30;63.00
32293;DHT22;43233;48.608;8.838;2023-04-15T08:57:29;8.40;61.70
32293;DHT22;43233;48.608;8.838;2023-04-15T08:59:55;8.40;61.60
32293;DHT22;43233;48.608;8.838;2023-04-15T09:02:23;8.40;61.70
32293;DHT22;43233;48.608;8.838;2023-04-15T09:04:49;8.60;61.50
32293;DHT22;43233;48.608;8.838;2023-04-15T09:07:15;8.70;61.30
32293;DHT22;43233;48.608;8.838;2023-04-15T09:09:41;8.70;61.40
32293;DHT22;43233;48.608;8.838;2023-04-15T09:12:07;8.80;61.60
32293;DHT22;43233;48.608;8.838;2023-04-15T09:14:33;8.90;61.80
32293;DHT22;43233;48.608;8.838;2023-04-15T09:17:03;8.90;62.00
32293;DHT22;43233;48.608;8.838;2023-04-15T09:19:29;9.00;61.90
32293;DHT22;43233;48.608;8.838;2023-04-15T09:21:57;9.00;62.00
32293;DHT22;43233;48.608;8.838;2023-04-15T09:24:23;9.20;61.70
32293;DHT22;43233;48.608;8.838;2023-04-15T09:26:54;9.40;62.60
32293;DHT22;43233;48.608;8.838;2023-04-15T09:29:25;9.50;62.40
32293;DHT22;43233;48.608;8.838;2023-04-15T09:31:51;9.50;61.90
32293;DHT22;43233;48.608;8.838;2023-04-15T09:34:17;9.60;62.10
32293;DHT22;43233;48.608;8.838;2023-04-15T09:39:12;9.70;61.10
32293;DHT22;43233;48.608;8.838;2023-04-15T09:41:39;9.80;61.20
32293;DHT22;43233;48.608;8.838;2023-04-15T09:44:23;9.90;61.50
32293;DHT22;43233;48.608;8.838;2023-04-15T09:46:49;10.10;59.80
32293;DHT22;43233;48.608;8.838;2023-04-15T09:49:15;10.30;59.30
32293;DHT22;43233;48.608;8.838;2023-04-15T09:51:42;10.40;56.80
32293;DHT22;43233;48.608;8.838;2023-04-15T09:54:08;10.50;55.10
32293;DHT22;43233;48.608;8.838;2023-04-15T09:56:38;10.70;47.70
32293;DHT22;43233;48.608;8.838;2023-04-15T09:59:07;10.80;47.50
32293;DHT22;43233;48.608;8.838;2023-04-15T10:01:34;10.90;42.00
32293;DHT22;43233;48.608;8.838;2023-04-15T10:04:03;10.90;43.20
32293;DHT22;43233;48.608;8.838;2023-04-15T10:06:29;11.10;42.90
32293;DHT22;43233;48.608;8.838;2023-04-15T10:08:57;11.20;42.30
32293;DHT22;43233;48.608;8.838;2023-04-15T10:11:23;11.30;41.50
32293;DHT22;43233;48.608;8.838;2023-04-15T10:13:50;11.40;42.60
32293;DHT22;43233;48.608;8.838;2023-04-15T10:16:19;11.50;43.60
32293;DHT22;43233;48.608;8.838;2023-04-15T10:18:47;11.70;43.80
32293;DHT22;43233;48.608;8.838;2023-04-15T10:21:15;11.80;38.60
32293;DHT22;43233;48.608;8.838;2023-04-15T10:23:44;11.90;35.90
32293;DHT22;43233;48.608;8.838;2023-04-15T10:26:11;11.90;37.30
32293;DHT22;43233;48.608;8.838;2023-04-15T10:28:39;12.00;35.70
32293;DHT22;43233;48.608;8.838;2023-04-15T10:31:05;12.10;32.90
32293;DHT22;43233;48.608;8.838;2023-04-15T10:33:32;12.10;32.70
32293;DHT22;43233;48.608;8.838;2023-04-15T10:35:59;12.30;32.10
32293;DHT22;43233;48.608;8.838;2023-04-15T10:41:26;12.30;30.00
32293;DHT22;43233;48.608;8.838;2023-04-15T10:44:02;12.50;31.40
32293;DHT22;43233;48.608;8.838;2023-04-15T10:46:41;12.60;30.10
32293;DHT22;43233;48.608;8.838;2023-04-15T10:49:12;12.70;31.10
32293;DHT22;43233;48.608;8.838;2023-04-15T10:51:40;13.00;29.30
32293;DHT22;43233;48.608;8.838;2023-04-15T10:54:33;13.10;29.20
32293;DHT22;43233;48.608;8.838;2023-04-15T10:59:30;13.60;31.50
32293;DHT22;43233;48.608;8.838;2023-04-15T11:02:00;13.70;31.30
32293;DHT22;43233;48.608;8.838;2023-04-15T11:04:55;13.80;29.60
32293;DHT22;43233;48.608;8.838;2023-04-15T11:07:50;13.90;26.00
32293;DHT22;43233;48.608;8.838;2023-04-15T11:15:40;13.80;29.30
32293;DHT22;43233;48.608;8.838;2023-04-15T11:18:24;13.80;28.80
32293;DHT22;43233;48.608;8.838;2023-04-15T11:20:55;13.70;29.40
32293;DHT22;43233;48.608;8.838;2023-04-15T11:23:38;13.80;30.30
32293;DHT22;43233;48.608;8.838;2023-04-15T11:26:08;13.60;31.10
32293;DHT22;43233;48.608;8.838;2023-04-15T11:28:37;13.50;31.90
32293;DHT22;43233;48.608;8.838;2023-04-15T11:31:17;13.50;32.40
32293;DHT22;43233;48.608;8.838;2023-04-15T11:34:01;13.50;32.70
32293;DHT22;43233;48.608;8.838;2023-04-15T11:36:28;13.60;32.70
32293;DHT22;43233;48.608;8.838;2023-04-15T11:38:57;13.50;32.90
32293;DHT22;43233;48.608;8.838;2023-04-15T11:41:23;13.40;32.80
32293;DHT22;43233;48.608;8.838;2023-04-15T11:43:50;13.20;32.00
32293;DHT22;43233;48.608;8.838;2023-04-15T11:46:16;13.20;32.90
32293;DHT22;43233;48.608;8.838;2023-04-15T11:48:43;13.10;31.50
32293;DHT22;43233;48.608;8.838;2023-04-15T11:51:09;13.00;30.40
32293;DHT22;43233;48.608;8.838;2023-04-15T11:53:42;12.80;32.20
32293;DHT22;43233;48.608;8.838;2023-04-15T11:56:10;12.60;33.00
32293;DHT22;43233;48.608;8.838;2023-04-15T11:58:40;12.70;31.50
32293;DHT22;43233;48.608;8.838;2023-04-15T12:01:07;12.70;31.50
32293;DHT22;43233;48.608;8.838;2023-04-15T12:06:09;13.20;34.40
32293;DHT22;43233;48.608;8.838;2023-04-15T12:08:55;13.60;34.50
32293;DHT22;43233;48.608;8.838;2023-04-15T12:14:02;14.00;32.10
32293;DHT22;43233;48.608;8.838;2023-04-15T12:16:29;14.10;33.70
32293;DHT22;43233;48.608;8.838;2023-04-15T12:18:56;14.20;33.00
32293;DHT22;43233;48.608;8.838;2023-04-15T12:21:25;14.30;32.50
32293;DHT22;43233;48.608;8.838;2023-04-15T12:23:52;14.30;33.00
32293;DHT22;43233;48.608;8.838;2023-04-15T12:26:27;14.30;32.80
32293;DHT22;43233;48.608;8.838;2023-04-15T12:29:06;14.20;32.80
32293;DHT22;43233;48.608;8.838;2023-04-15T12:31:36;14.10;33.90
32293;DHT22;43233;48.608;8.838;2023-04-15T12:34:06;14.10;31.80
32293;DHT22;43233;48.608;8.838;2023-04-15T12:36:32;14.40;31.50
32293;DHT22;43233;48.608;8.838;2023-04-15T12:39:05;14.40;31.30
32293;DHT22;43233;48.608;8.838;2023-04-15T12:41:31;14.50;31.60
32293;DHT22;43233;48.608;8.838;2023-04-15T12:43:58;14.80;28.20
32293;DHT22;43233;48.608;8.838;2023-04-15T12:46:24;14.80;28.40
32293;DHT22;43233;48.608;8.838;2023-04-15T12:48:50;14.80;28.10
32293;DHT22;43233;48.608;8.838;2023-04-15T12:51:18;14.90;29.00
32293;DHT22;43233;48.608;8.838;2023-04-15T12:53:43;15.00;29.10
32293;DHT22;43233;48.608;8.838;2023-04-15T12:56:09;14.70;29.40
32293;DHT22;43233;48.608;8.838;2023-04-15T12:58:35;14.70;31.00
32293;DHT22;43233;48.608;8.838;2023-04-15T13:01:01;14.60;30.60
32293;DHT22;43233;48.608;8.838;2023-04-15T13:03:26;14.40;30.80
32293;DHT22;43233;48.608;8.838;2023-04-15T13:05:52;14.10;30.90
32293;DHT22;43233;48.608;8.838;2023-04-15T13:08:18;14.00;32.00
32293;DHT22;43233;48.608;8.838;2023-04-15T13:10:43;14.10;32.10
32293;DHT22;43233;48.608;8.838;2023-04-15T13:13:09;14.40;32.10
32293;DHT22;43233;48.608;8.838;2023-04-15T13:15:35;14.40;30.70
32293;DHT22;43233;48.608;8.838;2023-04-15T13:18:01;14.50;32.00
32293;DHT22;43233;48.608;8.838;2023-04-15T13:20:27;14.20;30.50
32293;DHT22;43233;48.608;8.838;2023-04-15T13:22:53;14.30;30.70
32293;DHT22;43233;48.608;8.838;2023-04-15T13:25:19;14.20;29.70
32293;DHT22;43233;48.608;8.838;2023-04-15T13:27:45;14.00;30.00
32293;DHT22;43233;48.608;8.838;2023-04-15T13:30:11;14.00;31.50
32293;DHT22;43233;48.608;8.838;2023-04-15T13:32:37;13.80;32.60
32293;DHT22;43233;48.608;8.838;2023-04-15T13:35:03;13.50;33.10
32293;DHT22;43233;48.608;8.838;2023-04-15T13:37:30;13.60;32.70
32293;DHT22;43233;48.608;8.838;2023-04-15T13:39:56;13.60;31.90
32293;DHT22;43233;48.608;8.838;2023-04-15T13:42:24;13.70;29.80
32293;DHT22;43233;48.608;8.838;2023-04-15T13:44:50;14.00;30.10
32293;DHT22;43233;48.608;8.838;2023-04-15T13:47:18;14.10;29.00
32293;DHT22;43233;48.608;8.838;2023-04-15T13:49:43;14.20;28.40
32293;DHT22;43233;48.608;8.838;2023-04-15T13:52:10;14.20;28.70
32293;DHT22;43233;48.608;8.838;2023-04-15T13:54:36;14.20;28.20
32293;DHT22;43233;48.608;8.838;2023-04-15T13:57:02;14.20;28.20
32293;DHT22;43233;48.608;8.838;2023-04-15T13:59:28;14.20;28.90
32293;DHT22;43233;48.608;8.838;2023-04-15T14:01:53;14.20;30.10
32293;DHT22;43233;48.608;8.838;2023-04-15T14:04:19;14.10;30.90
32293;DHT22;43233;48.608;8.838;2023-04-15T14:06:45;14.10;32.10
32293;DHT22;43233;48.608;8.838;2023-04-15T14:09:11;14.10;33.30
32293;DHT22;43233;48.608;8.838;2023-04-15T14:11:38;14.00;34.20
32293;DHT22;43233;48.608;8.838;2023-04-15T14:14:04;14.00;35.00
32293;DHT22;43233;48.608;8.838;2023-04-15T14:16:32;13.90;34.40
32293;DHT22;43233;48.608;8.838;2023-04-15T14:18:58;13.90;34.00
32293;DHT22;43233;48.608;8.838;2023-04-15T14:21:24;13.80;34.10
32293;DHT22;43233;48.608;8.838;2023-04-15T14:23:50;13.80;33.90
32293;DHT22;43233;48.608;8.838;2023-04-15T14:26:16;13.70;34.80
32293;DHT22;43233;48.608;8.838;2023-04-15T14:28:42;13.70;34.50
32293;DHT22;43233;48.608;8.838;2023-04-15T14:31:09;13.60;34.60
32293;DHT22;43233;48.608;8.838;2023-04-15T14:33:35;13.60;34.80
32293;DHT22;43233;48.608;8.838;2023-04-15T14:36:00;13.60;35.20
32293;DHT22;43233;48.608;8.838;2023-04-15T14:38:26;13.60;35.50
32293;DHT22;43233;48.608;8.838;2023-04-15T14:40:52;13.60;34.80
32293;DHT22;43233;48.608;8.838;2023-04-15T14:43:18;13.70;34.70
32293;DHT22;43233;48.608;8.838;2023-04-15T14:45:43;13.60;34.40
32293;DHT22;43233;48.608;8.838;2023-04-15T14:48:09;13.60;34.00
32293;DHT22;43233;48.608;8.838;2023-04-15T14:50:37;13.60;32.30
32293;DHT22;43233;48.608;8.838;2023-04-15T14:53:02;13.40;32.00
32293;DHT22;43233;48.608;8.838;2023-04-15T14:55:29;13.10;31.20
32293;DHT22;43233;48.608;8.838;2023-04-15T14:57:54;13.10;31.30
32293;DHT22;43233;48.608;8.838;2023-04-15T15:00:20;13.00;30.90
32293;DHT22;43233;48.608;8.838;2023-04-15T15:02:46;12.80;31.60
32293;DHT22;43233;48.608;8.838;2023-04-15T15:05:12;12.80;32.40
32293;DHT22;43233;48.608;8.838;2023-04-15T15:07:38;12.70;32.10
32293;DHT22;43233;48.608;8.838;2023-04-15T15:10:05;12.70;32.90
32293;DHT22;43233;48.608;8.838;2023-04-15T15:12:32;12.70;32.90
32293;DHT22;43233;48.608;8.838;2023-04-15T15:14:58;12.80;32.70
32293;DHT22;43233;48.608;8.838;2023-04-15T15:17:23;12.60;32.30
32293;DHT22;43233;48.608;8.838;2023-04-15T15:19:49;12.40;32.80
32293;DHT22;43233;48.608;8.838;2023-04-15T15:22:15;12.30;33.30
32293;DHT22;43233;48.608;8.838;2023-04-15T15:24:41;12.10;34.40
32293;DHT22;43233;48.608;8.838;2023-04-15T15:27:07;12.10;34.50
32293;DHT22;43233;48.608;8.838;2023-04-15T15:29:32;12.20;34.70
32293;DHT22;43233;48.608;8.838;2023-04-15T15:31:58;12.20;35.60
32293;DHT22;43233;48.608;8.838;2023-04-15T15:34:24;12.20;35.00
32293;DHT22;43233;48.608;8.838;2023-04-15T15:36:50;12.20;35.50
32293;DHT22;43233;48.608;8.838;2023-04-15T15:39:15;12.20;35.60
32293;DHT22;43233;48.608;8.838;2023-04-15T15:41:41;12.20;35.70
32293;DHT22;43233;48.608;8.838;2023-04-15T15:44:07;12.10;36.10
32293;DHT22;43233;48.608;8.838;2023-04-15T15:46:32;12.20;36.00
32293;DHT22;43233;48.608;8.838;2023-04-15T15:48:58;12.20;36.20
32293;DHT22;43233;48.608;8.838;2023-04-15T15:51:24;12.30;36.50
32293;DHT22;43233;48.608;8.838;2023-04-15T15:53:51;12.10;36.50
32293;DHT22;43233;48.608;8.838;2023-04-15T15:56:17;12.00;36.80